Time;durP1;ratioP1;P1;durP2;ratioP2;P2;SDS_P1;SDS_P2;PMS_P1;PMS_P2;Temp;Humidity;BMP_temperature;BMP_pressure;BME280_temperature;BME280_humidity;BME280_pressure;Samples;Min_cycle;Max_cycle;Signal;HPM_P1;HPM_P2
2021/05/26 00:01:00;;;;;;;6.56;2.97;;;;;;;;;;379829;105;1962964;-70
2021/05/26 00:02:07;;;;;;;6.72;3.18;;;;;;;;;;337597;105;2710006;-71
2021/05/26 00:03:12;;;;;;;8.88;3.16;;;;;;;;;;330648;105;2073963;-72
2021/05/26 00:04:17;;;;;;;7.43;3.09;;;;;;;;;;314508;105;2218955;-73
2021/05/26 00:05:23;;;;;;;6.28;3.03;;;;;;;;;;359846;105;1961932;-73
2021/05/26 00:06:28;;;;;;;5.80;2.88;;;;;;;;;;379404;105;1961922;-73
2021/05/26 00:07:33;;;;;;;5.83;2.94;;;;;;;;;;379039;105;1962048;-70
2021/05/26 00:08:38;;;;;;;5.69;3.24;;;;;;;;;;365183;105;1961919;-73
2021/05/26 00:09:49;;;;;;;8.11;3.21;;;;;;;;;;401085;101;1985958;-74
2021/05/26 00:10:55;;;;;;;6.59;3.24;;;;;;;;;;384275;105;1962024;-74
2021/05/26 00:12:00;;;;;;;6.33;3.22;;;;;;;;;;379909;105;1961955;-72
2021/05/26 00:13:06;;;;;;;6.95;3.14;;;;;;;;;;372842;107;1961921;-73
2021/05/26 00:14:11;;;;;;;7.26;3.46;;;;;;;;;;372397;107;1961993;-73
2021/05/26 00:15:16;;;;;;;6.81;3.34;;;;;;;;;;373036;107;1960997;-74
2021/05/26 00:16:25;;;;;;;7.85;3.87;;;;;;;;;;374578;107;1961975;-72
2021/05/26 00:17:30;;;;;;;7.72;3.60;;;;;;;;;;373359;107;1963950;-73
2021/05/26 00:18:35;;;;;;;6.71;3.17;;;;;;;;;;373352;107;1963994;-72
2021/05/26 00:19:43;;;;;;;10.56;3.40;;;;;;;;;;372541;107;1962040;-73
2021/05/26 00:20:48;;;;;;;7.69;3.95;;;;;;;;;;373983;107;1963020;-73
2021/05/26 00:21:53;;;;;;;7.66;3.54;;;;;;;;;;375085;107;1963011;-74
2021/05/26 00:22:58;;;;;;;7.44;3.63;;;;;;;;;;374203;107;1962003;-73
2021/05/26 00:24:04;;;;;;;10.79;3.61;;;;;;;;;;373610;106;1962071;-74
2021/05/26 00:25:11;;;;;;;6.76;3.01;;;;;;;;;;336563;107;2619074;-72
2021/05/26 00:26:17;;;;;;;7.38;3.31;;;;;;;;;;373604;107;1961903;-73
2021/05/26 00:27:22;;;;;;;8.13;3.32;;;;;;;;;;374697;107;1961995;-73
2021/05/26 00:28:27;;;;;;;7.01;2.84;;;;;;;;;;375200;107;1962011;-73
2021/05/26 00:29:32;;;;;;;10.62;3.54;;;;;;;;;;371535;107;1961943;-73
2021/05/26 00:30:45;;;;;;;6.89;3.17;;;;;;;;;;372778;107;1962028;-72
2021/05/26 00:31:45;;;;;;;8.71;3.51;;;;;;;;;;371923;107;1963030;-72
2021/05/26 00:32:50;;;;;;;8.22;3.30;;;;;;;;;;372511;107;1962985;-73
2021/05/26 00:33:55;;;;;;;8.18;3.60;;;;;;;;;;374053;107;1962938;-73
2021/05/26 00:35:00;;;;;;;9.82;3.53;;;;;;;;;;375478;107;1962989;-73
2021/05/26 00:36:06;;;;;;;8.09;3.61;;;;;;;;;;322565;107;2871884;-72
2021/05/26 00:37:11;;;;;;;11.00;3.94;;;;;;;;;;301674;106;2293959;-72
2021/05/26 00:38:17;;;;;;;11.63;3.82;;;;;;;;;;299671;107;2319035;-73
2021/05/26 00:39:22;;;;;;;10.86;3.32;;;;;;;;;;353845;107;1961918;-74
2021/05/26 00:40:28;;;;;;;8.86;3.44;;;;;;;;;;373968;107;1960694;-73
2021/05/26 00:41:39;;;;;;;10.65;3.92;;;;;;;;;;402452;101;1985985;-71
2021/05/26 00:42:44;;;;;;;6.86;3.73;;;;;;;;;;375917;104;1970924;-73
2021/05/26 00:43:49;;;;;;;11.34;4.11;;;;;;;;;;375235;106;1963071;-72
2021/05/26 00:44:54;;;;;;;8.58;3.18;;;;;;;;;;376842;105;1962086;-73
2021/05/26 00:45:59;;;;;;;9.38;4.02;;;;;;;;;;376626;105;1963982;-73
2021/05/26 00:47:05;;;;;;;10.36;3.28;;;;;;;;;;378170;105;1962025;-74
2021/05/26 00:48:10;;;;;;;10.89;3.57;;;;;;;;;;377905;105;1961928;-73
2021/05/26 00:49:16;;;;;;;11.61;3.86;;;;;;;;;;377390;105;1963007;-73
2021/05/26 00:50:23;;;;;;;9.53;3.57;;;;;;;;;;377693;105;1961962;-73
2021/05/26 00:51:31;;;;;;;10.55;3.93;;;;;;;;;;377480;105;1962004;-72
2021/05/26 00:52:36;;;;;;;8.58;3.30;;;;;;;;;;378936;106;1962882;-74
2021/05/26 00:53:43;;;;;;;9.07;3.30;;;;;;;;;;377245;105;1963000;-74
2021/05/26 00:54:48;;;;;;;8.82;3.14;;;;;;;;;;378126;105;1962044;-73
2021/05/26 00:55:53;;;;;;;8.63;3.43;;;;;;;;;;377745;105;1961958;-72
2021/05/26 00:57:00;;;;;;;10.27;3.42;;;;;;;;;;326414;105;2882009;-73
2021/05/26 00:58:07;;;;;;;10.26;3.75;;;;;;;;;;377054;105;1963933;-71
2021/05/26 00:59:12;;;;;;;8.94;3.72;;;;;;;;;;373595;105;1961919;-70
2021/05/26 01:00:18;;;;;;;9.27;3.37;;;;;;;;;;376504;105;1964008;-73
2021/05/26 01:01:25;;;;;;;8.55;3.58;;;;;;;;;;331771;106;2763903;-73
2021/05/26 01:02:30;;;;;;;12.54;3.34;;;;;;;;;;320195;111;2011969;-71
2021/05/26 01:03:35;;;;;;;11.12;3.99;;;;;;;;;;309348;109;2144992;-72
2021/05/26 01:04:41;;;;;;;9.68;3.96;;;;;;;;;;369957;107;1961882;-71
2021/05/26 01:05:48;;;;;;;10.73;3.26;;;;;;;;;;368473;107;1963970;-71
2021/05/26 01:06:55;;;;;;;9.06;3.54;;;;;;;;;;350086;105;2417858;-72
2021/05/26 01:08:01;;;;;;;12.07;3.36;;;;;;;;;;347427;105;1964894;-72
2021/05/26 01:09:06;;;;;;;9.78;3.34;;;;;;;;;;362672;105;1961976;-70
2021/05/26 01:10:14;;;;;;;9.24;3.44;;;;;;;;;;378078;105;1961935;-73
2021/05/26 01:11:24;;;;;;;8.62;3.13;;;;;;;;;;377156;105;1961988;-73
2021/05/26 01:12:30;;;;;;;8.76;2.63;;;;;;;;;;378659;105;1970960;-72
2021/05/26 01:13:36;;;;;;;8.83;3.46;;;;;;;;;;350410;106;1962025;-72
2021/05/26 01:14:41;;;;;;;8.02;3.06;;;;;;;;;;348622;106;1961892;-73
2021/05/26 01:15:48;;;;;;;10.52;3.62;;;;;;;;;;379019;105;1961999;-72
2021/05/26 01:16:53;;;;;;;9.02;3.54;;;;;;;;;;378907;106;1961961;-71
2021/05/26 01:18:18;;;;;;;10.52;3.29;;;;;;;;;;376821;105;1961887;-72
2021/05/26 01:19:23;;;;;;;8.28;3.09;;;;;;;;;;379238;105;1961954;-72
2021/05/26 01:20:30;;;;;;;6.80;2.51;;;;;;;;;;369235;109;1961958;-72
2021/05/26 01:21:36;;;;;;;7.34;3.10;;;;;;;;;;371514;105;1961915;-73
2021/05/26 01:22:41;;;;;;;7.61;2.78;;;;;;;;;;376806;105;1962985;-74
2021/05/26 01:23:47;;;;;;;7.43;2.87;;;;;;;;;;369147;106;2903045;-74
2021/05/26 01:24:55;;;;;;;7.95;2.79;;;;;;;;;;376783;105;1964034;-73
2021/05/26 01:26:00;;;;;;;4.40;2.33;;;;;;;;;;378985;105;1961954;-74
2021/05/26 01:27:07;;;;;;;4.64;2.56;;;;;;;;;;376421;106;1962955;-73
2021/05/26 01:28:19;;;;;;;7.02;3.02;;;;;;;;;;366639;104;2070962;-73
2021/05/26 01:29:25;;;;;;;6.65;2.82;;;;;;;;;;377141;105;1968936;-74
2021/05/26 01:30:32;;;;;;;7.18;2.91;;;;;;;;;;374291;107;1960846;-74
2021/05/26 01:31:37;;;;;;;6.72;2.61;;;;;;;;;;374030;105;1960730;-73
2021/05/26 01:32:46;;;;;;;6.03;2.56;;;;;;;;;;378047;107;1960932;-73
2021/05/26 01:33:52;;;;;;;6.16;2.44;;;;;;;;;;376629;107;1961817;-73
2021/05/26 01:35:04;;;;;;;6.42;2.83;;;;;;;;;;352681;106;2071018;-72
2021/05/26 01:36:10;;;;;;;7.55;2.54;;;;;;;;;;367649;108;1961954;-73
2021/05/26 01:37:18;;;;;;;5.77;2.49;;;;;;;;;;369356;108;1961986;-70
2021/05/26 01:38:24;;;;;;;4.49;2.94;;;;;;;;;;326777;108;2726989;-71
2021/05/26 01:39:30;;;;;;;6.92;3.13;;;;;;;;;;370073;108;1962969;-72
2021/05/26 01:40:36;;;;;;;6.23;2.91;;;;;;;;;;369872;108;1961965;-73
2021/05/26 01:41:41;;;;;;;4.88;2.64;;;;;;;;;;369334;108;1961887;-72
2021/05/26 01:42:47;;;;;;;6.16;2.65;;;;;;;;;;366135;109;1961965;-74
2021/05/26 01:43:54;;;;;;;6.30;2.61;;;;;;;;;;365477;108;1964088;-72
2021/05/26 01:45:02;;;;;;;6.67;2.57;;;;;;;;;;369892;108;1962026;-72
2021/05/26 01:46:09;;;;;;;7.07;3.28;;;;;;;;;;362912;110;1962102;-73
2021/05/26 01:47:14;;;;;;;6.88;3.08;;;;;;;;;;363094;110;1962015;-72
2021/05/26 01:48:20;;;;;;;6.38;2.86;;;;;;;;;;369729;108;1962925;-73
2021/05/26 01:49:26;;;;;;;7.76;2.97;;;;;;;;;;352200;108;1962977;-73
2021/05/26 01:50:31;;;;;;;5.86;2.82;;;;;;;;;;370952;108;1961959;-72
2021/05/26 01:51:36;;;;;;;5.79;2.78;;;;;;;;;;370220;108;1961967;-70
2021/05/26 01:52:41;;;;;;;8.20;3.20;;;;;;;;;;369570;108;1964772;-72
2021/05/26 01:53:49;;;;;;;8.41;3.04;;;;;;;;;;369467;108;1961881;-72
2021/05/26 01:54:54;;;;;;;6.08;3.14;;;;;;;;;;370552;108;1961896;-73
2021/05/26 01:56:00;;;;;;;6.43;2.94;;;;;;;;;;370847;108;1963009;-72
2021/05/26 01:57:06;;;;;;;5.03;3.18;;;;;;;;;;326221;108;2748763;-73
2021/05/26 01:58:14;;;;;;;9.84;3.49;;;;;;;;;;330315;108;1981984;-73
2021/05/26 01:59:20;;;;;;;8.52;3.61;;;;;;;;;;369166;108;1962936;-73
2021/05/26 02:00:29;;;;;;;7.23;3.63;;;;;;;;;;370166;108;1961941;-74
2021/05/26 02:01:34;;;;;;;5.98;3.19;;;;;;;;;;369908;108;1961935;-73
2021/05/26 02:02:42;;;;;;;6.17;3.13;;;;;;;;;;323828;108;2787953;-73
2021/05/26 02:03:47;;;;;;;5.51;3.33;;;;;;;;;;306322;108;2209876;-73
2021/05/26 02:04:52;;;;;;;7.86;3.28;;;;;;;;;;348660;108;1962003;-73
2021/05/26 02:05:57;;;;;;;7.52;2.47;;;;;;;;;;352894;108;1961029;-73
2021/05/26 02:07:06;;;;;;;8.06;2.89;;;;;;;;;;370376;108;1962007;-73
2021/05/26 02:08:11;;;;;;;7.03;2.94;;;;;;;;;;363214;108;2947005;-74
2021/05/26 02:09:17;;;;;;;5.83;2.78;;;;;;;;;;323522;108;2796914;-73
2021/05/26 02:13:13;;;;;;;4.73;2.61;;;;;;;;;;344701;108;2886902;-73
2021/05/26 02:14:26;;;;;;;9.02;3.24;;;;;;;;;;383528;106;2070997;-73
2021/05/26 02:15:33;;;;;;;6.71;2.74;;;;;;;;;;301891;108;2238935;-73
2021/05/26 02:16:40;;;;;;;7.43;3.04;;;;;;;;;;353848;113;1961965;-72
2021/05/26 02:17:44;;;;;;;6.12;2.97;;;;;;;;;;364996;109;1961004;-73
2021/05/26 02:18:56;;;;;;;4.36;2.72;;;;;;;;;;392624;103;1986015;-72
2021/05/26 02:20:01;;;;;;;5.95;2.41;;;;;;;;;;374055;107;1961902;-74
2021/05/26 02:21:06;;;;;;;5.88;2.33;;;;;;;;;;366826;107;1963105;-73
2021/05/26 02:22:11;;;;;;;5.93;2.62;;;;;;;;;;371526;107;1963043;-73
2021/05/26 02:23:16;;;;;;;6.81;2.95;;;;;;;;;;370985;107;1963956;-72
2021/05/26 02:24:28;;;;;;;5.30;2.48;;;;;;;;;;393669;104;1986932;-74
2021/05/26 02:25:35;;;;;;;5.74;2.43;;;;;;;;;;370838;106;1961918;-73
2021/05/26 02:26:42;;;;;;;6.33;2.75;;;;;;;;;;374975;106;1961910;-71
2021/05/26 02:27:48;;;;;;;5.60;2.97;;;;;;;;;;371697;107;1961968;-73
2021/05/26 02:28:55;;;;;;;6.27;2.78;;;;;;;;;;357758;108;1962966;-73
2021/05/26 02:30:00;;;;;;;4.83;2.82;;;;;;;;;;371227;108;1961913;-73
2021/05/26 02:31:06;;;;;;;5.72;2.68;;;;;;;;;;374945;106;1961910;-73
2021/05/26 02:32:11;;;;;;;7.74;2.67;;;;;;;;;;373187;106;1962909;-72
2021/05/26 02:33:20;;;;;;;6.88;2.99;;;;;;;;;;370196;108;1962943;-72
2021/05/26 02:34:26;;;;;;;8.42;2.93;;;;;;;;;;353683;106;1967974;-73
2021/05/26 02:35:32;;;;;;;6.70;3.11;;;;;;;;;;371042;108;1961955;-73
2021/05/26 02:36:40;;;;;;;7.08;2.79;;;;;;;;;;370109;108;1961916;-74
2021/05/26 02:37:46;;;;;;;7.16;3.41;;;;;;;;;;365342;108;1961962;-72
2021/05/26 02:38:51;;;;;;;6.12;2.64;;;;;;;;;;369109;108;1960945;-72
2021/05/26 02:39:56;;;;;;;4.69;2.97;;;;;;;;;;359424;108;1961966;-73
2021/05/26 02:41:02;;;;;;;7.97;2.93;;;;;;;;;;369186;108;1961935;-73
2021/05/26 02:42:08;;;;;;;5.50;3.04;;;;;;;;;;373834;108;1962038;-73
2021/05/26 02:43:13;;;;;;;5.81;2.84;;;;;;;;;;375257;106;1960857;-74
2021/05/26 02:44:20;;;;;;;6.45;3.07;;;;;;;;;;366722;107;1960805;-73
2021/05/26 02:45:26;;;;;;;5.86;2.98;;;;;;;;;;323792;108;2738898;-73
2021/05/26 02:46:33;;;;;;;6.88;3.06;;;;;;;;;;371935;106;1960908;-73
2021/05/26 02:47:44;;;;;;;5.56;3.14;;;;;;;;;;402050;101;1986999;-72
2021/05/26 02:48:49;;;;;;;6.56;3.23;;;;;;;;;;375034;107;1963035;-73
2021/05/26 02:49:54;;;;;;;6.95;3.14;;;;;;;;;;376155;105;1964893;-72
2021/05/26 02:51:01;;;;;;;6.63;3.04;;;;;;;;;;384498;104;1963827;-72
2021/05/26 02:52:07;;;;;;;5.59;2.77;;;;;;;;;;362525;104;1962897;-73
2021/05/26 02:53:14;;;;;;;5.01;2.83;;;;;;;;;;380265;105;1961994;-72
2021/05/26 02:54:19;;;;;;;5.91;2.59;;;;;;;;;;379070;105;1962022;-72
2021/05/26 02:55:26;;;;;;;7.29;3.04;;;;;;;;;;382620;104;1962018;-73
2021/05/26 02:56:49;;;;;;;6.92;2.81;;;;;;;;;;385526;104;1961959;-72
2021/05/26 02:58:13;;;;;;;7.68;2.91;;;;;;;;;;347589;105;1961901;-74
2021/05/26 02:59:38;;;;;;;8.12;3.09;;;;;;;;;;358036;104;1961972;-73
2021/05/26 03:00:49;;;;;;;5.33;2.98;;;;;;;;;;351591;104;2437013;-74
2021/05/26 03:01:56;;;;;;;5.56;2.95;;;;;;;;;;378319;104;1962903;-74
2021/05/26 03:03:07;;;;;;;5.92;3.22;;;;;;;;;;391330;104;1985913;-73
2021/05/26 03:04:14;;;;;;;6.57;4.06;;;;;;;;;;348041;107;2423930;-74
2021/05/26 03:05:20;;;;;;;7.96;4.16;;;;;;;;;;376090;107;1962945;-73
2021/05/26 03:06:30;;;;;;;6.13;3.28;;;;;;;;;;328482;108;2668044;-72
2021/05/26 03:07:35;;;;;;;8.89;3.57;;;;;;;;;;363757;110;1961993;-73
2021/05/26 03:08:46;;;;;;;6.65;3.33;;;;;;;;;;392374;104;1986959;-73
2021/05/26 03:09:53;;;;;;;6.36;2.93;;;;;;;;;;376619;107;1961948;-74
2021/05/26 03:11:00;;;;;;;7.61;3.88;;;;;;;;;;368095;107;1961936;-72
2021/05/26 03:12:07;;;;;;;6.31;4.14;;;;;;;;;;372454;107;1961918;-73
2021/05/26 03:13:15;;;;;;;8.73;3.38;;;;;;;;;;318156;109;2868910;-72
2021/05/26 03:14:20;;;;;;;6.39;2.91;;;;;;;;;;305029;107;2230966;-74
2021/05/26 03:15:27;;;;;;;8.34;3.47;;;;;;;;;;369503;107;1962026;-73
2021/05/26 03:16:33;;;;;;;6.01;2.77;;;;;;;;;;370800;107;1962977;-73
2021/05/26 03:17:38;;;;;;;8.49;3.82;;;;;;;;;;370262;107;1961915;-74
2021/05/26 03:18:46;;;;;;;15.00;5.22;;;;;;;;;;369805;107;1964023;-75
2021/05/26 03:19:52;;;;;;;8.04;3.71;;;;;;;;;;369261;107;1963037;-74
2021/05/26 03:20:59;;;;;;;7.82;4.10;;;;;;;;;;367556;107;1961937;-73
2021/05/26 03:22:06;;;;;;;7.75;3.80;;;;;;;;;;313769;107;2333068;-73
2021/05/26 03:23:17;;;;;;;8.59;3.35;;;;;;;;;;320443;107;2822000;-72
2021/05/26 03:24:31;;;;;;;7.59;3.14;;;;;;;;;;338646;107;2562993;-74
2021/05/26 03:25:37;;;;;;;7.44;3.42;;;;;;;;;;347296;107;1961973;-73
2021/05/26 03:26:45;;;;;;;6.11;2.89;;;;;;;;;;369803;107;1961891;-73
2021/05/26 03:27:51;;;;;;;4.77;2.81;;;;;;;;;;370561;107;1962915;-73
2021/05/26 03:28:56;;;;;;;6.41;3.16;;;;;;;;;;369879;107;1961884;-73
2021/05/26 03:30:03;;;;;;;7.95;3.57;;;;;;;;;;370280;107;1962983;-73
2021/05/26 03:31:08;;;;;;;7.16;3.52;;;;;;;;;;364012;109;1961917;-71
2021/05/26 03:32:13;;;;;;;9.39;3.68;;;;;;;;;;352149;107;1961976;-73
2021/05/26 03:33:19;;;;;;;7.92;3.41;;;;;;;;;;363716;109;1960903;-73
2021/05/26 03:34:26;;;;;;;6.63;3.17;;;;;;;;;;364174;109;1960929;-74
2021/05/26 03:35:32;;;;;;;6.53;3.46;;;;;;;;;;373731;107;1960782;-74
2021/05/26 03:36:39;;;;;;;6.81;3.06;;;;;;;;;;301162;107;2301956;-73
2021/05/26 03:37:45;;;;;;;9.85;3.73;;;;;;;;;;356190;107;1961710;-74
2021/05/26 03:38:56;;;;;;;9.78;4.24;;;;;;;;;;394744;104;2071017;-73
2021/05/26 03:40:03;;;;;;;9.22;4.08;;;;;;;;;;379662;105;1961977;-73
2021/05/26 03:41:09;;;;;;;11.48;3.76;;;;;;;;;;338874;108;2881881;-74
2021/05/26 03:42:14;;;;;;;6.96;3.39;;;;;;;;;;340908;107;1961982;-74
2021/05/26 03:43:31;;;;;;;7.82;3.95;;;;;;;;;;323045;105;2121811;-73
2021/05/26 03:44:36;;;;;;;7.68;3.15;;;;;;;;;;377536;105;1961973;-72
2021/05/26 03:45:42;;;;;;;7.88;3.72;;;;;;;;;;371917;107;1961986;-72
2021/05/26 03:46:49;;;;;;;8.83;3.63;;;;;;;;;;375115;105;1961994;-73
2021/05/26 03:47:57;;;;;;;6.05;3.19;;;;;;;;;;361496;106;2887984;-73
2021/05/26 03:49:02;;;;;;;9.09;4.29;;;;;;;;;;379742;106;1961870;-72
2021/05/26 03:50:15;;;;;;;8.19;3.87;;;;;;;;;;380346;106;1961887;-73
2021/05/26 03:51:20;;;;;;;;;;;;;;;;;;383739;106;1960980;-73
2021/05/26 03:52:26;;;;;;;14.75;3.83;;;;;;;;;;337168;106;2701945;-72
2021/05/26 03:53:31;;;;;;;10.24;3.83;;;;;;;;;;330140;106;2087910;-72
2021/05/26 03:54:38;;;;;;;8.78;3.82;;;;;;;;;;377534;106;1961929;-73
2021/05/26 03:55:44;;;;;;;9.92;3.83;;;;;;;;;;368842;107;1961955;-72
2021/05/26 03:56:57;;;;;;;8.34;3.84;;;;;;;;;;330356;108;2013017;-73
2021/05/26 03:58:02;;;;;;;9.78;4.29;;;;;;;;;;343332;106;1974960;-72
2021/05/26 03:59:08;;;;;;;8.59;3.91;;;;;;;;;;364230;106;1961941;-72
2021/05/26 04:00:21;;;;;;;10.41;4.09;;;;;;;;;;396241;104;2075944;-74
2021/05/26 04:01:28;;;;;;;8.17;3.63;;;;;;;;;;369834;105;1970024;-74
2021/05/26 04:02:34;;;;;;;11.08;4.41;;;;;;;;;;367439;105;1961943;-72
2021/05/26 04:03:40;;;;;;;7.21;3.88;;;;;;;;;;368237;108;1963043;-73
2021/05/26 04:04:47;;;;;;;6.55;3.35;;;;;;;;;;367954;107;1963225;-73
2021/05/26 04:05:54;;;;;;;8.67;3.69;;;;;;;;;;363960;108;1961958;-73
2021/05/26 04:07:01;;;;;;;8.98;3.68;;;;;;;;;;366479;108;1963943;-72
2021/05/26 04:08:08;;;;;;;7.53;3.18;;;;;;;;;;367812;109;1962027;-73
2021/05/26 04:09:14;;;;;;;10.42;3.58;;;;;;;;;;320368;107;2156004;-73
2021/05/26 04:10:22;;;;;;;7.94;3.89;;;;;;;;;;368187;109;1961959;-72
2021/05/26 04:11:27;;;;;;;7.32;3.77;;;;;;;;;;368005;109;1961968;-74
2021/05/26 04:12:37;;;;;;;8.08;3.43;;;;;;;;;;364803;109;1962016;-72
2021/05/26 04:13:45;;;;;;;7.00;3.43;;;;;;;;;;329129;108;2000976;-74
2021/05/26 04:15:00;;;;;;;7.92;3.58;;;;;;;;;;363163;105;1963996;-74
2021/05/26 04:16:25;;;;;;;9.64;3.64;;;;;;;;;;321909;105;2876990;-74
2021/05/26 04:17:32;;;;;;;11.19;4.16;;;;;;;;;;377050;105;1962941;-72
2021/05/26 04:18:40;;;;;;;10.23;4.08;;;;;;;;;;374414;106;1964912;-73
2021/05/26 04:19:45;;;;;;;7.39;3.77;;;;;;;;;;372755;107;1963985;-72
2021/05/26 04:20:51;;;;;;;8.07;3.76;;;;;;;;;;336933;108;2489046;-73
2021/05/26 04:22:02;;;;;;;9.27;3.41;;;;;;;;;;391010;106;1986901;-73
2021/05/26 04:23:11;;;;;;;8.58;3.66;;;;;;;;;;371324;107;1961923;-73
2021/05/26 04:24:17;;;;;;;7.62;3.82;;;;;;;;;;340686;109;1963984;-74
2021/05/26 04:25:23;;;;;;;6.35;3.92;;;;;;;;;;368668;107;1964046;-74
2021/05/26 04:26:31;;;;;;;6.33;3.13;;;;;;;;;;371675;107;1961933;-74
2021/05/26 04:27:37;;;;;;;8.61;3.58;;;;;;;;;;329102;107;2885012;-73
2021/05/26 04:28:49;;;;;;;10.54;3.54;;;;;;;;;;384836;106;1962822;-73
2021/05/26 04:29:54;;;;;;;9.56;3.69;;;;;;;;;;368471;108;1965042;-73
2021/05/26 04:30:59;;;;;;;9.97;3.90;;;;;;;;;;368353;109;1961953;-74
2021/05/26 04:32:06;;;;;;;8.46;3.86;;;;;;;;;;369033;108;1964912;-74
2021/05/26 04:33:11;;;;;;;7.35;4.06;;;;;;;;;;368841;107;1963098;-73
2021/05/26 04:34:18;;;;;;;9.94;4.02;;;;;;;;;;325629;107;2761002;-74
2021/05/26 04:35:24;;;;;;;10.26;3.48;;;;;;;;;;304955;108;2247007;-75
2021/05/26 04:36:29;;;;;;;8.55;4.14;;;;;;;;;;351769;108;1961962;-75
2021/05/26 04:37:34;;;;;;;7.87;4.35;;;;;;;;;;354740;108;1962070;-73
2021/05/26 04:38:39;;;;;;;10.81;4.06;;;;;;;;;;344748;108;1961926;-73
2021/05/26 04:39:46;;;;;;;7.52;3.47;;;;;;;;;;370718;109;1961935;-75
2021/05/26 04:41:17;;;;;;;9.47;4.42;;;;;;;;;;411513;99;1987014;-75
2021/05/26 04:42:22;;;;;;;8.27;3.89;;;;;;;;;;392218;101;1963854;-74
2021/05/26 04:43:28;;;;;;;10.51;4.37;;;;;;;;;;389449;101;1964095;-74
2021/05/26 04:44:33;;;;;;;8.60;3.66;;;;;;;;;;390459;101;1963184;-75
2021/05/26 04:45:38;;;;;;;11.51;4.22;;;;;;;;;;380393;105;1962008;-75
2021/05/26 04:46:45;;;;;;;8.83;4.90;;;;;;;;;;380202;105;1961962;-75
2021/05/26 04:47:50;;;;;;;7.80;3.54;;;;;;;;;;365330;109;1961858;-75
2021/05/26 04:48:55;;;;;;;8.15;3.61;;;;;;;;;;363014;110;1961909;-74
2021/05/26 04:50:00;;;;;;;8.08;4.01;;;;;;;;;;365428;110;1961033;-75
2021/05/26 04:51:06;;;;;;;8.98;3.89;;;;;;;;;;331176;110;2873923;-75
2021/05/26 04:52:12;;;;;;;8.21;4.42;;;;;;;;;;314587;107;2193807;-74
2021/05/26 04:53:17;;;;;;;14.68;6.04;;;;;;;;;;304774;107;2278895;-73
2021/05/26 04:54:22;;;;;;;10.39;3.81;;;;;;;;;;307522;107;2242821;-73
2021/05/26 04:55:27;;;;;;;9.04;4.28;;;;;;;;;;331521;108;1995978;-73
2021/05/26 04:56:33;;;;;;;6.49;3.67;;;;;;;;;;364317;107;1961966;-74
2021/05/26 04:57:46;;;;;;;6.40;3.59;;;;;;;;;;385037;106;1987935;-73
2021/05/26 04:58:50;;;;;;;7.92;3.97;;;;;;;;;;365848;109;1962026;-73
2021/05/26 04:59:55;;;;;;;9.23;4.42;;;;;;;;;;362205;110;1966019;-74
2021/05/26 05:01:01;;;;;;;9.69;4.87;;;;;;;;;;363767;111;1963025;-73
2021/05/26 05:02:06;;;;;;;8.64;4.19;;;;;;;;;;362385;111;1962972;-72
2021/05/26 05:03:11;;;;;;;8.98;3.91;;;;;;;;;;361381;111;1961917;-73
2021/05/26 05:04:16;;;;;;;7.89;4.24;;;;;;;;;;363257;110;1960727;-74
2021/05/26 05:05:21;;;;;;;9.34;4.17;;;;;;;;;;363256;110;1962015;-74
2021/05/26 05:06:26;;;;;;;10.61;4.91;;;;;;;;;;361049;111;1961843;-74
2021/05/26 05:07:31;;;;;;;11.83;4.91;;;;;;;;;;361987;111;1961974;-72
2021/05/26 05:08:38;;;;;;;10.53;4.74;;;;;;;;;;362781;110;1964980;-74
2021/05/26 05:09:50;;;;;;;11.16;4.91;;;;;;;;;;355719;104;2642017;-73
2021/05/26 05:10:55;;;;;;;8.43;4.60;;;;;;;;;;322387;107;2148928;-74
2021/05/26 05:12:01;;;;;;;9.72;4.44;;;;;;;;;;361042;105;1962075;-74
2021/05/26 05:13:06;;;;;;;8.42;4.06;;;;;;;;;;373150;104;1960945;-72
2021/05/26 05:14:11;;;;;;;9.91;3.99;;;;;;;;;;368063;108;1962061;-73
2021/05/26 05:15:16;;;;;;;10.88;4.27;;;;;;;;;;356332;109;1963027;-74
2021/05/26 05:16:21;;;;;;;9.73;3.84;;;;;;;;;;362678;107;1961923;-73
2021/05/26 05:17:26;;;;;;;8.78;4.65;;;;;;;;;;350863;109;1961927;-73
2021/05/26 05:18:31;;;;;;;7.42;3.79;;;;;;;;;;336075;109;1961992;-74
2021/05/26 05:19:36;;;;;;;9.87;4.69;;;;;;;;;;318191;109;2067058;-73
2021/05/26 05:20:43;;;;;;;10.08;5.32;;;;;;;;;;361401;109;1961931;-73
2021/05/26 05:21:55;;;;;;;15.14;5.81;;;;;;;;;;396892;104;1985984;-73
2021/05/26 05:23:00;;;;;;;10.00;4.77;;;;;;;;;;374003;106;1969975;-75
2021/05/26 05:24:11;;;;;;;10.27;4.64;;;;;;;;;;395072;104;1984895;-73
2021/05/26 05:25:16;;;;;;;8.33;4.67;;;;;;;;;;374124;107;1963990;-74
2021/05/26 05:26:23;;;;;;;15.16;5.27;;;;;;;;;;333166;107;2692989;-73
2021/05/26 05:27:28;;;;;;;10.32;5.31;;;;;;;;;;319140;107;2153983;-73
2021/05/26 05:28:33;;;;;;;10.43;5.29;;;;;;;;;;322594;107;2121953;-73
2021/05/26 05:29:38;;;;;;;14.67;5.97;;;;;;;;;;299172;107;2322916;-73
2021/05/26 05:30:54;;;;;;;8.48;4.00;;;;;;;;;;342596;107;1961973;-72
2021/05/26 05:31:59;;;;;;;8.66;4.64;;;;;;;;;;323828;109;2022951;-74
2021/05/26 05:33:05;;;;;;;11.08;5.72;;;;;;;;;;352876;110;1961973;-74
2021/05/26 05:34:10;;;;;;;10.49;4.73;;;;;;;;;;358319;111;1962994;-73
2021/05/26 05:35:15;;;;;;;7.57;3.90;;;;;;;;;;347352;111;1963112;-73
2021/05/26 05:36:21;;;;;;;9.47;4.38;;;;;;;;;;362284;112;1961995;-74
2021/05/26 05:37:26;;;;;;;9.65;5.14;;;;;;;;;;361363;112;1961858;-74
2021/05/26 05:38:32;;;;;;;13.38;5.61;;;;;;;;;;361391;112;1961985;-73
2021/05/26 05:39:36;;;;;;;9.76;5.13;;;;;;;;;;363010;111;1962972;-73
2021/05/26 05:40:44;;;;;;;9.72;4.82;;;;;;;;;;361104;112;1962010;-73
2021/05/26 05:41:49;;;;;;;15.60;7.19;;;;;;;;;;363344;112;1962021;-73
2021/05/26 05:42:55;;;;;;;12.04;5.13;;;;;;;;;;363966;109;1961997;-73
2021/05/26 05:44:00;;;;;;;11.64;5.66;;;;;;;;;;361893;112;1962964;-73
2021/05/26 05:45:05;;;;;;;12.16;5.34;;;;;;;;;;361135;112;1963066;-74
2021/05/26 05:46:11;;;;;;;12.16;4.53;;;;;;;;;;310398;112;2126987;-74
2021/05/26 05:47:17;;;;;;;9.70;4.14;;;;;;;;;;334043;112;1961975;-74
2021/05/26 05:48:22;;;;;;;9.71;4.11;;;;;;;;;;313558;111;2097935;-73
2021/05/26 05:49:27;;;;;;;10.43;5.07;;;;;;;;;;307520;109;2194974;-72
2021/05/26 05:50:34;;;;;;;9.17;4.65;;;;;;;;;;360796;109;1964971;-73
2021/05/26 05:51:46;;;;;;;12.32;5.14;;;;;;;;;;399918;104;1985994;-74
2021/05/26 05:52:52;;;;;;;11.02;5.26;;;;;;;;;;379235;105;1961962;-75
2021/05/26 05:54:03;;;;;;;11.49;5.14;;;;;;;;;;351169;106;2054027;-74
2021/05/26 05:55:09;;;;;;;10.64;4.91;;;;;;;;;;346752;107;1961025;-74
2021/05/26 05:56:15;;;;;;;8.23;4.18;;;;;;;;;;370881;107;1962727;-75
2021/05/26 05:57:20;;;;;;;8.70;4.13;;;;;;;;;;368939;108;1961034;-75
2021/05/26 05:58:26;;;;;;;11.15;4.80;;;;;;;;;;368102;108;1960859;-75
2021/05/26 05:59:32;;;;;;;10.82;3.71;;;;;;;;;;366208;110;1961829;-75
2021/05/26 06:00:38;;;;;;;7.03;4.29;;;;;;;;;;369838;105;1960811;-73
2021/05/26 06:01:43;;;;;;;9.39;4.24;;;;;;;;;;370819;107;1961999;-73
2021/05/26 06:02:50;;;;;;;11.02;5.34;;;;;;;;;;355018;109;2963986;-73
2021/05/26 06:03:55;;;;;;;10.86;5.09;;;;;;;;;;312605;107;2129906;-73
2021/05/26 06:05:01;;;;;;;8.01;4.35;;;;;;;;;;359943;109;1962060;-73
2021/05/26 06:06:08;;;;;;;8.22;4.32;;;;;;;;;;350006;107;1963966;-74
2021/05/26 06:07:20;;;;;;;9.99;4.64;;;;;;;;;;389263;106;1986976;-74
2021/05/26 06:08:25;;;;;;;9.57;4.39;;;;;;;;;;357762;108;2961988;-73
2021/05/26 06:09:30;;;;;;;7.58;4.07;;;;;;;;;;368815;107;1961972;-74
2021/05/26 06:10:35;;;;;;;9.11;4.16;;;;;;;;;;368510;109;1960983;-74
2021/05/26 06:11:41;;;;;;;10.48;4.58;;;;;;;;;;358570;109;2925940;-75
2021/05/26 06:12:49;;;;;;;7.26;3.81;;;;;;;;;;359172;109;2860050;-73
2021/05/26 06:13:54;;;;;;;9.81;3.88;;;;;;;;;;365974;109;1961943;-75
2021/05/26 06:15:25;;;;;;;6.97;3.13;;;;;;;;;;413990;99;1985933;-74
2021/05/26 06:16:38;;;;;;;7.81;3.51;;;;;;;;;;395839;101;1962031;-74
2021/05/26 06:17:44;;;;;;;7.97;3.58;;;;;;;;;;382427;101;1963925;-74
2021/05/26 06:18:49;;;;;;;8.95;3.51;;;;;;;;;;376621;101;1961928;-74
2021/05/26 06:19:54;;;;;;;7.93;3.71;;;;;;;;;;365209;102;1961957;-73
2021/05/26 06:20:59;;;;;;;5.36;3.09;;;;;;;;;;374503;103;1961952;-75
2021/05/26 06:22:06;;;;;;;5.83;3.18;;;;;;;;;;388693;103;1961983;-73
2021/05/26 06:23:11;;;;;;;8.77;4.23;;;;;;;;;;386900;102;1961992;-74
2021/05/26 06:24:16;;;;;;;9.04;5.07;;;;;;;;;;377798;106;1962008;-74
2021/05/26 06:25:22;;;;;;;8.71;3.39;;;;;;;;;;378438;103;1961878;-74
2021/05/26 06:26:31;;;;;;;6.23;3.11;;;;;;;;;;390831;103;1961968;-74
2021/05/26 06:27:36;;;;;;;8.78;3.14;;;;;;;;;;388249;102;1961995;-74
2021/05/26 06:28:41;;;;;;;6.41;2.62;;;;;;;;;;375318;103;1963022;-74
2021/05/26 06:29:46;;;;;;;6.99;3.08;;;;;;;;;;362434;103;1962032;-74
2021/05/26 06:30:58;;;;;;;6.35;2.66;;;;;;;;;;385360;106;1985967;-73
2021/05/26 06:32:03;;;;;;;5.21;2.31;;;;;;;;;;369305;109;1961993;-73